WBGGWBGB

Guest
Details From WBGG - Kuching Intl
To WBGB - BINTULU
Flight Number -
Tags generated
Created
Modified
Stats Distance 195 nm / 361 km
Max Altitude 17,200 ft / 5,243 m
Waypoints 4
Social Downloads 0
Likes 0
Share VATSIM

Download

Looking for another format? Having issues loading an existing format? Contact us
Advertisement - Login to hide

Notes

Basic altitude profile: - Ascent Rate: 2500ft/min - Ascent Speed: 250kts - Cruise Altitude: 35000ft - Cruise Speed: 420kts - Descent Rate: 1500ft/min - Descent Speed: 250kts Options: - Use NATs: yes - Use PACOTS: yes - Use low airways: yes - Use high airways: yes

Route

WBGG VKG G460 VSI WBGB

ID Type Via Altitude Latitude Longitude Leg Dist Tot Dist Heading (true) Name
O WBGG APT - 0 ft / 0 m 1.48470˚ 110.34693˚ - 0 nm - Kuching Intl
VKG VOR - 900 ft / 274 m 1.47333˚ 110.30575˚ 2 nm 2 nm 255° / 255° KUCHING VOR-DME
VSI VOR G460 (AWY-LO) 17,200 ft / 5,243 m 2.24681˚ 112.00339˚ 111 nm 114 nm 65° / 66° SIBU VOR-DME
O WBGB APT - 0 ft / 0 m 3.12384˚ 113.02047˚ 80 nm 195 nm 49° / 49° BINTULU

Altitude Profile

Advertisement - Login to hide

Weather


0- 5 10 15 20 25 30 35+ Temperature / ° C

Clouds and Precipitation
Forecast for 2018-05-22 12:00 UTC. Updated 3 hours ago

Ground ~20,000 ft ~40,000 ft Winds

WBGG

Details ICAO WBGG (KCH)
Name Kuching Intl
Region Brunei and Malaysia
Timezone Asia/Kuching (UTC+8.0)
Stats Elevation 89 ft / 27 m (AMSL)
Location 1.484698° 110.346932°
Runways 1
Magnetic Variation 0.334° E

METAR

WBGG 221400Z 20003KT 9999 FEW020 SCT150 BKN300 26/25 Q1009 NOSIG

Decode

TAF

TAF TAF WBGG 221100Z 2212/2312 VRB03KT 9999 SCT020 TEMPO 2212/2215 03005KT 5000 RA FEW003 FEW015CB

Decode

Departure Runways

ID Width Length Bearing (true) Bearing (mag) Surface Threshold Offset Overrun Length
07 151 ft / 46 m 8,012 ft / 2,442 m 68.26° 67.93° Asphalt 0 ft / 0 m 0 ft / 0 m
25 151 ft / 46 m 8,012 ft / 2,442 m 248.26° 247.93° Asphalt 320 ft / 98 m 0 ft / 0 m

WBGB

Details ICAO WBGB (BTU)
Name BINTULU
Region Brunei and Malaysia
Timezone Asia/Kuching (UTC+8.0)
Stats Elevation 74 ft / 23 m (AMSL)
Location 3.123838° 113.020472°
Runways 1
Magnetic Variation 0.076° E

METAR

WBGB 221400Z VRB02KT 9999 FEW015CB SCT016 BKN150 27/26 Q1008

Decode

TAF

TAF WBGB 221100Z 2212/2312 VRB03KT 9999 FEW016

Decode

Destination Runways

ID Width Length Bearing (true) Bearing (mag) Surface Threshold Offset Overrun Length
17 147 ft / 45 m 9,042 ft / 2,756 m 167.88° 167.80° Asphalt 0 ft / 0 m 197 ft / 60 m
35 147 ft / 45 m 9,042 ft / 2,756 m 347.88° 347.80° Asphalt 0 ft / 0 m 197 ft / 60 m

Approach Navaids

Runway Type Ident Frequency Range Bearing (true) Bearing (mag) Slope Elevation
17 Localiser ILU 108.70 MHz 18 nm / 33 km 169.17° 169.09° - 81 ft / 25 m (AMSL)
17 Glidescope ILU 108.70 MHz 10 nm / 19 km 167.88° 167.80° 3.00° 82 ft / 25 m (AMSL)
17 DME ILU 108.70 MHz 18 nm / 33 km - - - 82 ft / 25 m (AMSL)

Popular Alternatives